sensor_id;sensor_type;location;lat;lon;timestamp;P1;durP1;ratioP1;P2;durP2;ratioP2
7607;SDS011;3845;48.120;11.534;2022-12-20T00:00:42;6.67;;;5.30;;
7607;SDS011;3845;48.120;11.534;2022-12-20T00:03:08;7.57;;;5.27;;
7607;SDS011;3845;48.120;11.534;2022-12-20T00:05:39;6.73;;;5.33;;
7607;SDS011;3845;48.120;11.534;2022-12-20T00:08:06;6.90;;;5.07;;
7607;SDS011;3845;48.120;11.534;2022-12-20T00:10:35;7.40;;;5.13;;
7607;SDS011;3845;48.120;11.534;2022-12-20T00:13:01;6.60;;;5.30;;
7607;SDS011;3845;48.120;11.534;2022-12-20T00:15:27;6.30;;;4.80;;
7607;SDS011;3845;48.120;11.534;2022-12-20T00:17:52;5.77;;;4.60;;
7607;SDS011;3845;48.120;11.534;2022-12-20T00:20:17;6.70;;;5.30;;
7607;SDS011;3845;48.120;11.534;2022-12-20T00:22:42;7.47;;;5.33;;
7607;SDS011;3845;48.120;11.534;2022-12-20T00:25:08;6.77;;;4.77;;
7607;SDS011;3845;48.120;11.534;2022-12-20T00:27:34;6.40;;;5.00;;
7607;SDS011;3845;48.120;11.534;2022-12-20T00:29:59;7.27;;;5.40;;
7607;SDS011;3845;48.120;11.534;2022-12-20T00:32:24;6.67;;;5.17;;
7607;SDS011;3845;48.120;11.534;2022-12-20T00:34:51;7.13;;;5.23;;
7607;SDS011;3845;48.120;11.534;2022-12-20T00:37:16;6.07;;;4.97;;
7607;SDS011;3845;48.120;11.534;2022-12-20T00:39:41;8.00;;;5.47;;
7607;SDS011;3845;48.120;11.534;2022-12-20T00:42:07;8.33;;;5.70;;
7607;SDS011;3845;48.120;11.534;2022-12-20T00:44:32;6.50;;;5.03;;
7607;SDS011;3845;48.120;11.534;2022-12-20T00:46:57;6.70;;;5.10;;
7607;SDS011;3845;48.120;11.534;2022-12-20T00:49:22;6.77;;;5.10;;
7607;SDS011;3845;48.120;11.534;2022-12-20T00:51:47;6.70;;;5.17;;
7607;SDS011;3845;48.120;11.534;2022-12-20T00:54:13;7.07;;;4.80;;
7607;SDS011;3845;48.120;11.534;2022-12-20T00:56:38;6.27;;;4.87;;
7607;SDS011;3845;48.120;11.534;2022-12-20T00:59:03;5.90;;;5.00;;
7607;SDS011;3845;48.120;11.534;2022-12-20T01:01:30;7.93;;;5.70;;
7607;SDS011;3845;48.120;11.534;2022-12-20T01:03:56;7.43;;;5.27;;
7607;SDS011;3845;48.120;11.534;2022-12-20T01:06:22;6.57;;;5.27;;
7607;SDS011;3845;48.120;11.534;2022-12-20T01:08:49;7.43;;;5.33;;
7607;SDS011;3845;48.120;11.534;2022-12-20T01:11:15;6.83;;;5.13;;
7607;SDS011;3845;48.120;11.534;2022-12-20T01:13:49;7.30;;;5.60;;
7607;SDS011;3845;48.120;11.534;2022-12-20T01:18:58;7.60;;;5.40;;
7607;SDS011;3845;48.120;11.534;2022-12-20T01:21:24;6.97;;;5.07;;
7607;SDS011;3845;48.120;11.534;2022-12-20T01:23:50;7.47;;;5.30;;
7607;SDS011;3845;48.120;11.534;2022-12-20T01:26:17;6.80;;;4.93;;
7607;SDS011;3845;48.120;11.534;2022-12-20T01:28:44;6.80;;;4.97;;
7607;SDS011;3845;48.120;11.534;2022-12-20T01:31:12;7.03;;;5.00;;
7607;SDS011;3845;48.120;11.534;2022-12-20T01:33:40;7.17;;;5.03;;
7607;SDS011;3845;48.120;11.534;2022-12-20T01:36:07;7.13;;;5.17;;
7607;SDS011;3845;48.120;11.534;2022-12-20T01:38:34;6.80;;;5.07;;
7607;SDS011;3845;48.120;11.534;2022-12-20T01:41:00;6.53;;;4.80;;
7607;SDS011;3845;48.120;11.534;2022-12-20T01:43:28;6.23;;;5.10;;
7607;SDS011;3845;48.120;11.534;2022-12-20T01:46:10;5.67;;;4.67;;
7607;SDS011;3845;48.120;11.534;2022-12-20T01:48:35;6.00;;;4.40;;
7607;SDS011;3845;48.120;11.534;2022-12-20T01:51:00;5.73;;;4.20;;
7607;SDS011;3845;48.120;11.534;2022-12-20T01:53:26;4.63;;;4.00;;
7607;SDS011;3845;48.120;11.534;2022-12-20T01:55:51;6.17;;;4.40;;
7607;SDS011;3845;48.120;11.534;2022-12-20T01:58:17;6.03;;;4.07;;
7607;SDS011;3845;48.120;11.534;2022-12-20T02:00:43;5.43;;;4.20;;
7607;SDS011;3845;48.120;11.534;2022-12-20T02:03:10;4.90;;;3.90;;
7607;SDS011;3845;48.120;11.534;2022-12-20T02:05:38;4.80;;;3.77;;
7607;SDS011;3845;48.120;11.534;2022-12-20T02:08:04;4.83;;;3.53;;
7607;SDS011;3845;48.120;11.534;2022-12-20T02:10:42;4.23;;;3.30;;
7607;SDS011;3845;48.120;11.534;2022-12-20T02:13:24;3.57;;;2.83;;
7607;SDS011;3845;48.120;11.534;2022-12-20T02:15:55;4.50;;;3.00;;
7607;SDS011;3845;48.120;11.534;2022-12-20T02:18:39;4.10;;;2.83;;
7607;SDS011;3845;48.120;11.534;2022-12-20T02:27:08;4.40;;;2.77;;
7607;SDS011;3845;48.120;11.534;2022-12-20T02:32:32;3.83;;;2.90;;
7607;SDS011;3845;48.120;11.534;2022-12-20T02:35:04;3.77;;;2.80;;
7607;SDS011;3845;48.120;11.534;2022-12-20T02:37:31;4.07;;;2.80;;
7607;SDS011;3845;48.120;11.534;2022-12-20T02:39:56;4.77;;;3.33;;
7607;SDS011;3845;48.120;11.534;2022-12-20T02:42:22;4.57;;;3.00;;
7607;SDS011;3845;48.120;11.534;2022-12-20T02:44:53;4.13;;;2.93;;
7607;SDS011;3845;48.120;11.534;2022-12-20T02:50:17;4.77;;;3.00;;
7607;SDS011;3845;48.120;11.534;2022-12-20T02:52:46;4.67;;;3.30;;
7607;SDS011;3845;48.120;11.534;2022-12-20T02:55:12;5.20;;;3.20;;
7607;SDS011;3845;48.120;11.534;2022-12-20T03:00:09;4.40;;;3.10;;
7607;SDS011;3845;48.120;11.534;2022-12-20T03:02:36;4.10;;;3.10;;
7607;SDS011;3845;48.120;11.534;2022-12-20T03:05:28;4.47;;;3.30;;
7607;SDS011;3845;48.120;11.534;2022-12-20T03:07:53;4.57;;;3.10;;
7607;SDS011;3845;48.120;11.534;2022-12-20T03:10:19;3.63;;;2.97;;
7607;SDS011;3845;48.120;11.534;2022-12-20T03:12:45;3.50;;;3.00;;
7607;SDS011;3845;48.120;11.534;2022-12-20T03:15:10;3.80;;;2.90;;
7607;SDS011;3845;48.120;11.534;2022-12-20T03:17:36;3.57;;;3.17;;
7607;SDS011;3845;48.120;11.534;2022-12-20T03:20:02;4.30;;;3.10;;
7607;SDS011;3845;48.120;11.534;2022-12-20T03:22:30;4.60;;;2.70;;
7607;SDS011;3845;48.120;11.534;2022-12-20T03:24:55;4.17;;;2.90;;
7607;SDS011;3845;48.120;11.534;2022-12-20T03:27:21;4.13;;;3.20;;
7607;SDS011;3845;48.120;11.534;2022-12-20T03:29:46;4.37;;;2.97;;
7607;SDS011;3845;48.120;11.534;2022-12-20T03:32:11;3.67;;;2.77;;
7607;SDS011;3845;48.120;11.534;2022-12-20T03:34:36;3.93;;;3.10;;
7607;SDS011;3845;48.120;11.534;2022-12-20T03:37:02;5.87;;;3.93;;
7607;SDS011;3845;48.120;11.534;2022-12-20T03:39:27;4.30;;;3.10;;
7607;SDS011;3845;48.120;11.534;2022-12-20T03:41:53;5.03;;;3.30;;
7607;SDS011;3845;48.120;11.534;2022-12-20T03:44:18;3.53;;;2.90;;
7607;SDS011;3845;48.120;11.534;2022-12-20T03:46:43;3.63;;;2.93;;
7607;SDS011;3845;48.120;11.534;2022-12-20T03:49:08;4.13;;;3.10;;
7607;SDS011;3845;48.120;11.534;2022-12-20T03:51:34;4.00;;;2.97;;
7607;SDS011;3845;48.120;11.534;2022-12-20T03:53:59;4.70;;;2.90;;
7607;SDS011;3845;48.120;11.534;2022-12-20T03:56:24;3.80;;;2.90;;
7607;SDS011;3845;48.120;11.534;2022-12-20T03:58:49;4.57;;;2.83;;
7607;SDS011;3845;48.120;11.534;2022-12-20T04:01:22;4.60;;;2.77;;
7607;SDS011;3845;48.120;11.534;2022-12-20T04:03:49;3.53;;;2.90;;
7607;SDS011;3845;48.120;11.534;2022-12-20T04:06:15;4.03;;;2.63;;
7607;SDS011;3845;48.120;11.534;2022-12-20T04:08:40;4.20;;;2.80;;
7607;SDS011;3845;48.120;11.534;2022-12-20T04:11:06;3.73;;;2.70;;
7607;SDS011;3845;48.120;11.534;2022-12-20T04:13:44;3.60;;;2.97;;
7607;SDS011;3845;48.120;11.534;2022-12-20T04:16:11;4.33;;;2.87;;
7607;SDS011;3845;48.120;11.534;2022-12-20T04:18:37;3.43;;;2.80;;
7607;SDS011;3845;48.120;11.534;2022-12-20T04:21:02;3.50;;;2.80;;
7607;SDS011;3845;48.120;11.534;2022-12-20T04:23:28;3.20;;;2.70;;
7607;SDS011;3845;48.120;11.534;2022-12-20T04:25:53;4.20;;;3.03;;
7607;SDS011;3845;48.120;11.534;2022-12-20T04:28:18;4.03;;;2.97;;
7607;SDS011;3845;48.120;11.534;2022-12-20T04:30:44;3.00;;;2.60;;
7607;SDS011;3845;48.120;11.534;2022-12-20T04:33:09;3.10;;;2.80;;
7607;SDS011;3845;48.120;11.534;2022-12-20T04:35:35;3.87;;;2.63;;
7607;SDS011;3845;48.120;11.534;2022-12-20T04:38:01;3.83;;;2.90;;
7607;SDS011;3845;48.120;11.534;2022-12-20T04:40:26;3.53;;;2.90;;
7607;SDS011;3845;48.120;11.534;2022-12-20T04:42:51;4.50;;;2.60;;
7607;SDS011;3845;48.120;11.534;2022-12-20T04:45:17;3.20;;;2.80;;
7607;SDS011;3845;48.120;11.534;2022-12-20T04:47:42;4.07;;;3.03;;
7607;SDS011;3845;48.120;11.534;2022-12-20T04:50:07;4.07;;;2.83;;
7607;SDS011;3845;48.120;11.534;2022-12-20T04:52:33;3.10;;;2.63;;
7607;SDS011;3845;48.120;11.534;2022-12-20T04:55:17;2.73;;;2.43;;
7607;SDS011;3845;48.120;11.534;2022-12-20T04:57:42;3.20;;;2.70;;
7607;SDS011;3845;48.120;11.534;2022-12-20T05:00:08;3.67;;;2.90;;
7607;SDS011;3845;48.120;11.534;2022-12-20T05:02:33;4.03;;;2.90;;
7607;SDS011;3845;48.120;11.534;2022-12-20T05:04:59;3.30;;;2.70;;
7607;SDS011;3845;48.120;11.534;2022-12-20T05:07:24;3.87;;;2.80;;
7607;SDS011;3845;48.120;11.534;2022-12-20T05:09:49;3.77;;;2.90;;
7607;SDS011;3845;48.120;11.534;2022-12-20T05:12:14;3.73;;;2.90;;
7607;SDS011;3845;48.120;11.534;2022-12-20T05:14:40;3.70;;;2.83;;
7607;SDS011;3845;48.120;11.534;2022-12-20T05:17:05;3.20;;;2.57;;
7607;SDS011;3845;48.120;11.534;2022-12-20T05:19:30;4.53;;;3.00;;
7607;SDS011;3845;48.120;11.534;2022-12-20T05:21:55;3.67;;;2.70;;
7607;SDS011;3845;48.120;11.534;2022-12-20T05:24:39;7.70;;;4.87;;
7607;SDS011;3845;48.120;11.534;2022-12-20T05:27:23;8.40;;;4.33;;
7607;SDS011;3845;48.120;11.534;2022-12-20T05:29:48;4.90;;;3.60;;
7607;SDS011;3845;48.120;11.534;2022-12-20T05:32:14;4.43;;;3.53;;
7607;SDS011;3845;48.120;11.534;2022-12-20T05:34:39;5.57;;;3.40;;
7607;SDS011;3845;48.120;11.534;2022-12-20T05:37:04;4.00;;;3.00;;
7607;SDS011;3845;48.120;11.534;2022-12-20T05:39:30;4.80;;;3.10;;
7607;SDS011;3845;48.120;11.534;2022-12-20T05:41:55;4.13;;;3.03;;
7607;SDS011;3845;48.120;11.534;2022-12-20T05:44:20;3.80;;;3.00;;
7607;SDS011;3845;48.120;11.534;2022-12-20T05:46:46;4.13;;;2.70;;
7607;SDS011;3845;48.120;11.534;2022-12-20T05:49:11;3.67;;;2.80;;
7607;SDS011;3845;48.120;11.534;2022-12-20T05:51:37;3.07;;;2.70;;
7607;SDS011;3845;48.120;11.534;2022-12-20T05:54:02;3.47;;;2.60;;
7607;SDS011;3845;48.120;11.534;2022-12-20T05:56:27;3.97;;;2.77;;
7607;SDS011;3845;48.120;11.534;2022-12-20T05:58:53;3.70;;;2.97;;
7607;SDS011;3845;48.120;11.534;2022-12-20T06:01:18;4.00;;;2.90;;
7607;SDS011;3845;48.120;11.534;2022-12-20T06:03:44;3.87;;;2.70;;
7607;SDS011;3845;48.120;11.534;2022-12-20T06:06:10;3.67;;;2.80;;
7607;SDS011;3845;48.120;11.534;2022-12-20T06:08:35;3.73;;;2.87;;
7607;SDS011;3845;48.120;11.534;2022-12-20T06:11:00;3.57;;;3.03;;
7607;SDS011;3845;48.120;11.534;2022-12-20T06:13:28;3.50;;;3.00;;
7607;SDS011;3845;48.120;11.534;2022-12-20T06:15:53;3.73;;;2.80;;
7607;SDS011;3845;48.120;11.534;2022-12-20T06:18:19;3.20;;;2.60;;
7607;SDS011;3845;48.120;11.534;2022-12-20T06:20:48;3.20;;;2.67;;
7607;SDS011;3845;48.120;11.534;2022-12-20T06:23:14;3.70;;;2.90;;
7607;SDS011;3845;48.120;11.534;2022-12-20T06:25:39;5.00;;;3.43;;
7607;SDS011;3845;48.120;11.534;2022-12-20T06:28:05;6.07;;;3.00;;
7607;SDS011;3845;48.120;11.534;2022-12-20T06:30:31;4.33;;;3.00;;
7607;SDS011;3845;48.120;11.534;2022-12-20T06:32:58;3.43;;;3.07;;
7607;SDS011;3845;48.120;11.534;2022-12-20T06:35:23;5.00;;;3.00;;
7607;SDS011;3845;48.120;11.534;2022-12-20T06:37:48;5.17;;;3.30;;
7607;SDS011;3845;48.120;11.534;2022-12-20T06:40:14;3.80;;;2.90;;
7607;SDS011;3845;48.120;11.534;2022-12-20T06:42:39;4.07;;;3.30;;
7607;SDS011;3845;48.120;11.534;2022-12-20T06:45:05;4.53;;;3.30;;
7607;SDS011;3845;48.120;11.534;2022-12-20T06:47:30;5.43;;;3.00;;
7607;SDS011;3845;48.120;11.534;2022-12-20T06:49:57;3.37;;;2.60;;
7607;SDS011;3845;48.120;11.534;2022-12-20T06:52:22;4.93;;;3.10;;
7607;SDS011;3845;48.120;11.534;2022-12-20T06:54:48;3.27;;;2.77;;
7607;SDS011;3845;48.120;11.534;2022-12-20T06:57:13;3.70;;;2.67;;
7607;SDS011;3845;48.120;11.534;2022-12-20T06:59:39;31.37;;;18.33;;
7607;SDS011;3845;48.120;11.534;2022-12-20T07:02:04;39.07;;;25.47;;
7607;SDS011;3845;48.120;11.534;2022-12-20T07:04:29;35.50;;;22.80;;
7607;SDS011;3845;48.120;11.534;2022-12-20T07:06:54;20.33;;;13.60;;
7607;SDS011;3845;48.120;11.534;2022-12-20T07:09:21;13.83;;;10.53;;
7607;SDS011;3845;48.120;11.534;2022-12-20T07:11:46;13.73;;;10.07;;
7607;SDS011;3845;48.120;11.534;2022-12-20T07:14:11;10.87;;;8.13;;
7607;SDS011;3845;48.120;11.534;2022-12-20T07:16:37;9.87;;;7.47;;
7607;SDS011;3845;48.120;11.534;2022-12-20T07:19:02;8.57;;;6.50;;
7607;SDS011;3845;48.120;11.534;2022-12-20T07:21:27;6.97;;;5.30;;
7607;SDS011;3845;48.120;11.534;2022-12-20T07:23:55;6.40;;;5.10;;
7607;SDS011;3845;48.120;11.534;2022-12-20T07:26:21;7.10;;;5.20;;
7607;SDS011;3845;48.120;11.534;2022-12-20T07:28:46;6.73;;;4.40;;
7607;SDS011;3845;48.120;11.534;2022-12-20T07:31:11;7.57;;;4.37;;
7607;SDS011;3845;48.120;11.534;2022-12-20T07:33:37;4.90;;;3.90;;
7607;SDS011;3845;48.120;11.534;2022-12-20T07:36:07;5.27;;;4.00;;
7607;SDS011;3845;48.120;11.534;2022-12-20T07:38:34;5.63;;;3.43;;
7607;SDS011;3845;48.120;11.534;2022-12-20T07:41:00;4.60;;;3.33;;
7607;SDS011;3845;48.120;11.534;2022-12-20T07:43:30;4.93;;;3.10;;
7607;SDS011;3845;48.120;11.534;2022-12-20T07:45:55;4.20;;;2.93;;
7607;SDS011;3845;48.120;11.534;2022-12-20T07:48:21;4.47;;;3.00;;
7607;SDS011;3845;48.120;11.534;2022-12-20T07:50:48;5.13;;;3.23;;
7607;SDS011;3845;48.120;11.534;2022-12-20T07:53:15;5.53;;;3.20;;
7607;SDS011;3845;48.120;11.534;2022-12-20T07:55:41;9.80;;;5.53;;
7607;SDS011;3845;48.120;11.534;2022-12-20T07:58:07;10.00;;;6.03;;
7607;SDS011;3845;48.120;11.534;2022-12-20T08:00:34;7.90;;;5.40;;
7607;SDS011;3845;48.120;11.534;2022-12-20T08:05:33;6.33;;;4.53;;
7607;SDS011;3845;48.120;11.534;2022-12-20T08:07:59;5.03;;;3.97;;
7607;SDS011;3845;48.120;11.534;2022-12-20T08:10:26;5.17;;;3.60;;
7607;SDS011;3845;48.120;11.534;2022-12-20T08:12:52;4.83;;;3.50;;
7607;SDS011;3845;48.120;11.534;2022-12-20T08:15:19;4.40;;;3.23;;
7607;SDS011;3845;48.120;11.534;2022-12-20T08:17:47;3.50;;;2.93;;
7607;SDS011;3845;48.120;11.534;2022-12-20T08:20:12;4.70;;;3.40;;
7607;SDS011;3845;48.120;11.534;2022-12-20T08:22:38;4.93;;;3.30;;
7607;SDS011;3845;48.120;11.534;2022-12-20T08:25:03;3.53;;;3.00;;
7607;SDS011;3845;48.120;11.534;2022-12-20T08:27:29;4.10;;;3.03;;
7607;SDS011;3845;48.120;11.534;2022-12-20T08:29:54;4.00;;;2.80;;
7607;SDS011;3845;48.120;11.534;2022-12-20T08:32:20;3.80;;;3.00;;
7607;SDS011;3845;48.120;11.534;2022-12-20T08:34:45;3.77;;;2.90;;
7607;SDS011;3845;48.120;11.534;2022-12-20T08:37:12;4.83;;;3.43;;
7607;SDS011;3845;48.120;11.534;2022-12-20T08:39:40;3.60;;;2.93;;
7607;SDS011;3845;48.120;11.534;2022-12-20T08:42:05;4.37;;;3.00;;
7607;SDS011;3845;48.120;11.534;2022-12-20T08:44:31;4.07;;;3.10;;
7607;SDS011;3845;48.120;11.534;2022-12-20T08:46:56;3.73;;;2.90;;
7607;SDS011;3845;48.120;11.534;2022-12-20T08:49:21;4.47;;;3.10;;
7607;SDS011;3845;48.120;11.534;2022-12-20T08:51:47;5.03;;;3.33;;
7607;SDS011;3845;48.120;11.534;2022-12-20T08:54:12;5.00;;;3.30;;
7607;SDS011;3845;48.120;11.534;2022-12-20T08:56:37;6.03;;;3.67;;
7607;SDS011;3845;48.120;11.534;2022-12-20T08:59:02;5.87;;;3.37;;
7607;SDS011;3845;48.120;11.534;2022-12-20T09:01:28;5.10;;;3.20;;
7607;SDS011;3845;48.120;11.534;2022-12-20T09:03:54;5.50;;;3.20;;
7607;SDS011;3845;48.120;11.534;2022-12-20T09:06:19;4.90;;;3.30;;
7607;SDS011;3845;48.120;11.534;2022-12-20T09:08:46;5.03;;;3.43;;
7607;SDS011;3845;48.120;11.534;2022-12-20T09:11:12;5.97;;;3.60;;
7607;SDS011;3845;48.120;11.534;2022-12-20T09:13:39;6.97;;;3.77;;
7607;SDS011;3845;48.120;11.534;2022-12-20T09:16:06;5.73;;;4.03;;
7607;SDS011;3845;48.120;11.534;2022-12-20T09:18:32;4.57;;;3.50;;
7607;SDS011;3845;48.120;11.534;2022-12-20T09:20:58;6.23;;;4.00;;
7607;SDS011;3845;48.120;11.534;2022-12-20T09:23:27;5.90;;;4.20;;
7607;SDS011;3845;48.120;11.534;2022-12-20T09:25:53;6.03;;;4.03;;
7607;SDS011;3845;48.120;11.534;2022-12-20T09:28:18;5.50;;;3.93;;
7607;SDS011;3845;48.120;11.534;2022-12-20T09:30:44;4.77;;;3.80;;
7607;SDS011;3845;48.120;11.534;2022-12-20T09:33:09;4.40;;;3.40;;
7607;SDS011;3845;48.120;11.534;2022-12-20T09:35:34;4.77;;;3.90;;
7607;SDS011;3845;48.120;11.534;2022-12-20T09:38:00;4.77;;;3.50;;
7607;SDS011;3845;48.120;11.534;2022-12-20T09:40:26;4.07;;;3.30;;
7607;SDS011;3845;48.120;11.534;2022-12-20T09:42:54;5.47;;;3.57;;
7607;SDS011;3845;48.120;11.534;2022-12-20T09:45:28;4.07;;;3.37;;
7607;SDS011;3845;48.120;11.534;2022-12-20T09:47:59;4.30;;;3.20;;
7607;SDS011;3845;48.120;11.534;2022-12-20T09:50:36;3.77;;;3.00;;
7607;SDS011;3845;48.120;11.534;2022-12-20T09:53:25;4.43;;;3.13;;
7607;SDS011;3845;48.120;11.534;2022-12-20T09:55:58;4.30;;;3.13;;
7607;SDS011;3845;48.120;11.534;2022-12-20T09:59:25;3.23;;;2.60;;
7607;SDS011;3845;48.120;11.534;2022-12-20T10:01:29;3.60;;;2.83;;
7607;SDS011;3845;48.120;11.534;2022-12-20T10:03:56;3.63;;;3.00;;
7607;SDS011;3845;48.120;11.534;2022-12-20T10:09:12;4.20;;;2.90;;
7607;SDS011;3845;48.120;11.534;2022-12-20T10:23:00;7.00;;;3.90;;
7607;SDS011;3845;48.120;11.534;2022-12-20T10:25:32;6.13;;;4.10;;
7607;SDS011;3845;48.120;11.534;2022-12-20T10:28:09;5.23;;;4.07;;
7607;SDS011;3845;48.120;11.534;2022-12-20T10:30:36;5.33;;;4.17;;
7607;SDS011;3845;48.120;11.534;2022-12-20T10:33:02;6.53;;;4.10;;
7607;SDS011;3845;48.120;11.534;2022-12-20T10:35:37;5.70;;;3.90;;
7607;SDS011;3845;48.120;11.534;2022-12-20T10:38:05;5.13;;;3.53;;
7607;SDS011;3845;48.120;11.534;2022-12-20T10:40:35;4.17;;;3.40;;
7607;SDS011;3845;48.120;11.534;2022-12-20T10:43:02;4.73;;;3.40;;
7607;SDS011;3845;48.120;11.534;2022-12-20T10:45:35;6.13;;;3.57;;
7607;SDS011;3845;48.120;11.534;2022-12-20T10:48:03;4.53;;;3.50;;
7607;SDS011;3845;48.120;11.534;2022-12-20T10:50:30;5.20;;;3.90;;
7607;SDS011;3845;48.120;11.534;2022-12-20T10:55:35;4.20;;;3.40;;
7607;SDS011;3845;48.120;11.534;2022-12-20T10:58:02;5.70;;;3.87;;
7607;SDS011;3845;48.120;11.534;2022-12-20T11:00:39;6.17;;;3.60;;
7607;SDS011;3845;48.120;11.534;2022-12-20T11:03:18;6.80;;;3.90;;
7607;SDS011;3845;48.120;11.534;2022-12-20T11:06:19;4.33;;;3.40;;
7607;SDS011;3845;48.120;11.534;2022-12-20T11:08:39;5.00;;;4.10;;
7607;SDS011;3845;48.120;11.534;2022-12-20T11:13:38;6.60;;;4.57;;
7607;SDS011;3845;48.120;11.534;2022-12-20T11:16:04;6.40;;;4.57;;
7607;SDS011;3845;48.120;11.534;2022-12-20T11:21:23;5.60;;;4.57;;
7607;SDS011;3845;48.120;11.534;2022-12-20T11:24:07;7.10;;;4.57;;
7607;SDS011;3845;48.120;11.534;2022-12-20T11:26:53;5.73;;;4.10;;
7607;SDS011;3845;48.120;11.534;2022-12-20T11:32:13;5.10;;;4.10;;
7607;SDS011;3845;48.120;11.534;2022-12-20T11:40:40;5.23;;;3.90;;
7607;SDS011;3845;48.120;11.534;2022-12-20T11:45:41;5.17;;;3.60;;
7607;SDS011;3845;48.120;11.534;2022-12-20T11:53:44;4.40;;;3.50;;
7607;SDS011;3845;48.120;11.534;2022-12-20T11:56:23;4.30;;;3.30;;
7607;SDS011;3845;48.120;11.534;2022-12-20T12:01:27;4.30;;;3.50;;
7607;SDS011;3845;48.120;11.534;2022-12-20T12:07:07;5.30;;;3.40;;
7607;SDS011;3845;48.120;11.534;2022-12-20T12:09:35;3.90;;;3.03;;
7607;SDS011;3845;48.120;11.534;2022-12-20T12:12:13;3.97;;;3.30;;
7607;SDS011;3845;48.120;11.534;2022-12-20T12:15:04;4.30;;;3.00;;
7607;SDS011;3845;48.120;11.534;2022-12-20T12:20:30;4.20;;;3.00;;
7607;SDS011;3845;48.120;11.534;2022-12-20T12:26:02;4.10;;;3.23;;
7607;SDS011;3845;48.120;11.534;2022-12-20T12:28:33;3.83;;;2.90;;
7607;SDS011;3845;48.120;11.534;2022-12-20T12:31:02;3.77;;;3.03;;
7607;SDS011;3845;48.120;11.534;2022-12-20T12:33:37;4.67;;;3.30;;
7607;SDS011;3845;48.120;11.534;2022-12-20T12:47:15;4.70;;;3.60;;
7607;SDS011;3845;48.120;11.534;2022-12-20T12:49:46;6.17;;;4.20;;
7607;SDS011;3845;48.120;11.534;2022-12-20T12:55:34;6.73;;;4.53;;
7607;SDS011;3845;48.120;11.534;2022-12-20T13:00:51;5.40;;;4.20;;
7607;SDS011;3845;48.120;11.534;2022-12-20T13:03:34;6.13;;;4.70;;
7607;SDS011;3845;48.120;11.534;2022-12-20T13:11:34;7.97;;;5.00;;
7607;SDS011;3845;48.120;11.534;2022-12-20T13:16:42;6.80;;;4.70;;
7607;SDS011;3845;48.120;11.534;2022-12-20T13:19:12;6.87;;;4.77;;
7607;SDS011;3845;48.120;11.534;2022-12-20T13:21:39;7.87;;;4.97;;
7607;SDS011;3845;48.120;11.534;2022-12-20T13:27:22;5.83;;;4.60;;
7607;SDS011;3845;48.120;11.534;2022-12-20T13:30:14;7.30;;;4.53;;
7607;SDS011;3845;48.120;11.534;2022-12-20T13:40:30;6.53;;;5.10;;
7607;SDS011;3845;48.120;11.534;2022-12-20T13:43:02;8.27;;;5.17;;
7607;SDS011;3845;48.120;11.534;2022-12-20T13:45:30;6.20;;;5.00;;
7607;SDS011;3845;48.120;11.534;2022-12-20T13:48:03;7.23;;;5.20;;
7607;SDS011;3845;48.120;11.534;2022-12-20T13:50:31;9.10;;;5.20;;
7607;SDS011;3845;48.120;11.534;2022-12-20T13:52:59;6.83;;;5.10;;
7607;SDS011;3845;48.120;11.534;2022-12-20T13:55:36;7.80;;;5.33;;
7607;SDS011;3845;48.120;11.534;2022-12-20T13:58:13;7.30;;;4.70;;
7607;SDS011;3845;48.120;11.534;2022-12-20T14:00:41;7.40;;;5.30;;
7607;SDS011;3845;48.120;11.534;2022-12-20T14:03:20;11.13;;;5.20;;
7607;SDS011;3845;48.120;11.534;2022-12-20T14:05:55;7.20;;;4.90;;
7607;SDS011;3845;48.120;11.534;2022-12-20T14:08:34;6.27;;;4.70;;
7607;SDS011;3845;48.120;11.534;2022-12-20T14:11:06;8.70;;;4.80;;
7607;SDS011;3845;48.120;11.534;2022-12-20T14:13:38;8.07;;;5.50;;
7607;SDS011;3845;48.120;11.534;2022-12-20T14:16:14;7.20;;;4.70;;
7607;SDS011;3845;48.120;11.534;2022-12-20T14:18:40;8.53;;;4.87;;
7607;SDS011;3845;48.120;11.534;2022-12-20T14:21:06;6.37;;;4.90;;
7607;SDS011;3845;48.120;11.534;2022-12-20T14:23:35;8.70;;;5.00;;
7607;SDS011;3845;48.120;11.534;2022-12-20T14:26:02;6.53;;;5.03;;
7607;SDS011;3845;48.120;11.534;2022-12-20T14:31:01;8.07;;;5.13;;
7607;SDS011;3845;48.120;11.534;2022-12-20T14:38:40;6.10;;;5.00;;
7607;SDS011;3845;48.120;11.534;2022-12-20T14:41:27;8.23;;;5.20;;
7607;SDS011;3845;48.120;11.534;2022-12-20T14:43:57;10.50;;;7.00;;
7607;SDS011;3845;48.120;11.534;2022-12-20T14:46:25;23.07;;;12.53;;
7607;SDS011;3845;48.120;11.534;2022-12-20T14:51:43;11.57;;;7.27;;
7607;SDS011;3845;48.120;11.534;2022-12-20T14:54:16;10.27;;;7.40;;
7607;SDS011;3845;48.120;11.534;2022-12-20T14:56:46;10.30;;;7.00;;
7607;SDS011;3845;48.120;11.534;2022-12-20T14:59:15;13.47;;;7.80;;
7607;SDS011;3845;48.120;11.534;2022-12-20T15:01:51;12.10;;;9.00;;
7607;SDS011;3845;48.120;11.534;2022-12-20T15:04:32;14.13;;;9.67;;
7607;SDS011;3845;48.120;11.534;2022-12-20T15:06:59;17.57;;;12.20;;
7607;SDS011;3845;48.120;11.534;2022-12-20T15:09:25;17.73;;;12.77;;
7607;SDS011;3845;48.120;11.534;2022-12-20T15:11:51;20.83;;;14.47;;
7607;SDS011;3845;48.120;11.534;2022-12-20T15:17:11;19.70;;;14.23;;
7607;SDS011;3845;48.120;11.534;2022-12-20T15:19:38;18.73;;;14.57;;
7607;SDS011;3845;48.120;11.534;2022-12-20T15:22:04;20.53;;;14.90;;
7607;SDS011;3845;48.120;11.534;2022-12-20T15:24:29;26.30;;;16.43;;
7607;SDS011;3845;48.120;11.534;2022-12-20T15:26:56;19.93;;;14.93;;
7607;SDS011;3845;48.120;11.534;2022-12-20T15:29:22;20.53;;;15.27;;
7607;SDS011;3845;48.120;11.534;2022-12-20T15:31:49;19.73;;;14.87;;
7607;SDS011;3845;48.120;11.534;2022-12-20T15:34:23;18.80;;;14.07;;
7607;SDS011;3845;48.120;11.534;2022-12-20T15:37:01;19.27;;;13.73;;
7607;SDS011;3845;48.120;11.534;2022-12-20T15:39:27;18.43;;;13.50;;
7607;SDS011;3845;48.120;11.534;2022-12-20T15:41:53;20.93;;;14.07;;
7607;SDS011;3845;48.120;11.534;2022-12-20T15:44:20;24.90;;;15.33;;
7607;SDS011;3845;48.120;11.534;2022-12-20T15:46:47;21.07;;;13.40;;
7607;SDS011;3845;48.120;11.534;2022-12-20T15:49:20;21.50;;;13.73;;
7607;SDS011;3845;48.120;11.534;2022-12-20T15:51:47;21.20;;;13.37;;
7607;SDS011;3845;48.120;11.534;2022-12-20T15:54:27;18.13;;;12.90;;
7607;SDS011;3845;48.120;11.534;2022-12-20T15:56:57;18.07;;;12.30;;
7607;SDS011;3845;48.120;11.534;2022-12-20T15:59:24;20.90;;;12.27;;
7607;SDS011;3845;48.120;11.534;2022-12-20T16:01:49;16.37;;;12.13;;
7607;SDS011;3845;48.120;11.534;2022-12-20T16:04:16;20.70;;;12.53;;
7607;SDS011;3845;48.120;11.534;2022-12-20T16:06:43;17.57;;;13.03;;
7607;SDS011;3845;48.120;11.534;2022-12-20T16:09:09;16.13;;;11.67;;
7607;SDS011;3845;48.120;11.534;2022-12-20T16:11:34;21.47;;;12.80;;
7607;SDS011;3845;48.120;11.534;2022-12-20T16:13:59;19.57;;;13.33;;
7607;SDS011;3845;48.120;11.534;2022-12-20T16:16:26;20.90;;;12.93;;
7607;SDS011;3845;48.120;11.534;2022-12-20T16:18:54;19.13;;;13.07;;
7607;SDS011;3845;48.120;11.534;2022-12-20T16:21:21;24.57;;;14.13;;
7607;SDS011;3845;48.120;11.534;2022-12-20T16:23:48;20.40;;;13.63;;
7607;SDS011;3845;48.120;11.534;2022-12-20T16:26:14;22.93;;;14.70;;
7607;SDS011;3845;48.120;11.534;2022-12-20T16:28:41;26.53;;;15.10;;
7607;SDS011;3845;48.120;11.534;2022-12-20T16:31:11;21.87;;;14.70;;
7607;SDS011;3845;48.120;11.534;2022-12-20T16:33:41;21.47;;;14.13;;
7607;SDS011;3845;48.120;11.534;2022-12-20T16:36:08;23.97;;;15.37;;
7607;SDS011;3845;48.120;11.534;2022-12-20T16:38:35;20.83;;;14.60;;
7607;SDS011;3845;48.120;11.534;2022-12-20T16:41:05;25.80;;;15.80;;
7607;SDS011;3845;48.120;11.534;2022-12-20T16:43:35;21.23;;;14.20;;
7607;SDS011;3845;48.120;11.534;2022-12-20T16:46:01;19.33;;;12.73;;
7607;SDS011;3845;48.120;11.534;2022-12-20T16:48:26;19.80;;;11.83;;
7607;SDS011;3845;48.120;11.534;2022-12-20T16:50:51;18.20;;;11.80;;
7607;SDS011;3845;48.120;11.534;2022-12-20T16:53:17;17.63;;;11.67;;
7607;SDS011;3845;48.120;11.534;2022-12-20T16:55:43;14.60;;;10.83;;
7607;SDS011;3845;48.120;11.534;2022-12-20T16:58:08;15.37;;;10.67;;
7607;SDS011;3845;48.120;11.534;2022-12-20T17:00:34;14.37;;;10.00;;
7607;SDS011;3845;48.120;11.534;2022-12-20T17:03:01;13.60;;;9.07;;